Time;durP1;ratioP1;P1;durP2;ratioP2;P2;SDS_P1;SDS_P2;PMS_P1;PMS_P2;Temp;Humidity;BMP_temperature;BMP_pressure;BME280_temperature;BME280_humidity;BME280_pressure;Samples;Min_cycle;Max_cycle;Signal;HPM_P1;HPM_P2
2022/01/22 00:00:43;;;;;;;;;;;;;;;8.65;58.27;102263.50;5010068;28;6795;-70
2022/01/22 00:03:08;;;;;;;;;;;;;;;8.66;57.67;102264.41;5002233;28;6995;-70
2022/01/22 00:05:34;;;;;;;;;;;;;;;8.66;57.66;102269.53;5048248;28;6934;-70
2022/01/22 00:08:00;;;;;;;;;;;;;;;8.65;57.77;102277.97;5029388;28;7731;-70
2022/01/22 00:10:26;;;;;;;;;;;;;;;8.64;58.15;102269.41;5029660;28;6815;-70
2022/01/22 00:13:07;;;;;;;;;;;;;;;8.64;57.67;102266.84;5009334;28;6788;-70
2022/01/22 00:15:33;;;;;;;;;;;;;;;8.65;57.55;102271.19;5018634;28;7674;-70
2022/01/22 00:18:00;;;;;;;;;;;;;;;8.65;57.23;102268.63;5026383;28;6869;-70
2022/01/22 00:20:28;;;;;;;;;;;;;;;8.67;58.11;102276.44;5011551;28;7861;-70
2022/01/22 00:22:54;;;;;;;;;;;;;;;8.68;57.99;102284.22;5033694;28;6819;-70
2022/01/22 00:25:22;;;;;;;;;;;;;;;8.69;57.91;102273.25;5020228;28;7089;-70
2022/01/22 00:27:50;;;;;;;;;;;;;;;8.69;57.55;102286.03;5014659;28;7158;-70
2022/01/22 00:30:25;;;;;;;;;;;;;;;8.69;58.33;102280.94;5044508;28;6812;-70
2022/01/22 00:32:53;;;;;;;;;;;;;;;8.68;57.78;102275.66;5011916;28;8032;-70
2022/01/22 00:35:22;;;;;;;;;;;;;;;8.67;57.39;102282.44;5007723;28;6803;-70
2022/01/22 00:37:50;;;;;;;;;;;;;;;8.66;57.29;102278.09;5002883;28;6815;-70
2022/01/22 00:40:18;;;;;;;;;;;;;;;8.66;56.92;102279.75;5011774;28;6815;-70
2022/01/22 00:42:47;;;;;;;;;;;;;;;8.63;57.38;102275.28;5030899;28;7046;-70
2022/01/22 00:45:14;;;;;;;;;;;;;;;8.61;58.33;102276.81;4993495;28;7170;-70
2022/01/22 00:47:39;;;;;;;;;;;;;;;8.57;57.14;102277.28;5015010;28;7190;-70
2022/01/22 00:50:11;;;;;;;;;;;;;;;8.53;57.56;102272.69;5010005;28;7717;-70
2022/01/22 00:52:41;;;;;;;;;;;;;;;8.48;57.38;102278.25;5013386;28;6984;-70
2022/01/22 00:55:08;;;;;;;;;;;;;;;8.43;58.49;102276.97;5044955;28;6881;-70
2022/01/22 00:57:34;;;;;;;;;;;;;;;8.38;58.10;102285.88;5010430;28;6827;-70
2022/01/22 00:59:59;;;;;;;;;;;;;;;8.34;57.72;102284.72;5028852;28;9833;-70
2022/01/22 01:02:25;;;;;;;;;;;;;;;8.31;57.61;102286.13;5002138;28;9899;-70
2022/01/22 01:05:13;;;;;;;;;;;;;;;8.28;58.83;102284.19;5017469;28;6827;-70
2022/01/22 01:07:40;;;;;;;;;;;;;;;8.28;58.87;102293.50;5014324;28;7243;-70
2022/01/22 01:10:09;;;;;;;;;;;;;;;8.27;59.06;102278.94;5033771;28;7004;-70
2022/01/22 01:12:38;;;;;;;;;;;;;;;8.26;58.81;102282.25;4999960;28;6989;-70
2022/01/22 01:15:19;;;;;;;;;;;;;;;8.23;59.16;102285.44;5035187;28;7903;-71
2022/01/22 01:18:03;;;;;;;;;;;;;;;8.21;58.88;102286.97;5026089;28;7093;-70
2022/01/22 01:34:24;;;;;;;;;;;;;;;8.16;59.67;102275.44;5017226;28;6985;-70
2022/01/22 01:36:49;;;;;;;;;;;;;;;8.15;59.58;102266.91;5034197;28;6924;-70
2022/01/22 01:39:25;;;;;;;;;;;;;;;8.16;58.82;102267.78;5015108;28;7015;-71
2022/01/22 01:44:18;;;;;;;;;;;;;;;8.14;59.49;102272.75;5044310;28;6883;-70
2022/01/22 01:46:52;;;;;;;;;;;;;;;8.11;59.94;102264.84;5016159;28;6986;-70
2022/01/22 01:49:18;;;;;;;;;;;;;;;8.11;59.85;102271.59;5048020;28;6827;-70
2022/01/22 01:51:44;;;;;;;;;;;;;;;8.11;60.45;102267.41;5013928;28;6855;-70
2022/01/22 01:54:35;;;;;;;;;;;;;;;8.11;60.04;102272.50;5015461;28;6969;-70
2022/01/22 01:59:51;;;;;;;;;;;;;;;8.04;60.09;102276.16;5020587;28;7050;-70
2022/01/22 02:02:17;;;;;;;;;;;;;;;8.03;60.76;102282.03;5035825;28;6795;-70
2022/01/22 02:04:43;;;;;;;;;;;;;;;8.03;60.29;102276.91;5009385;28;6975;-70
2022/01/22 02:07:10;;;;;;;;;;;;;;;8.05;60.96;102270.28;5009773;28;6808;-70
2022/01/22 02:09:38;;;;;;;;;;;;;;;8.08;59.70;102277.31;5021415;28;7268;-70
2022/01/22 02:12:15;;;;;;;;;;;;;;;8.08;60.50;102269.66;5006620;28;6849;-70
2022/01/22 02:25:39;;;;;;;;;;;;;;;8.13;60.63;102260.75;5009087;28;6915;-70
2022/01/22 02:28:05;;;;;;;;;;;;;;;8.15;60.79;102260.88;5006402;28;7469;-70
2022/01/22 02:30:34;;;;;;;;;;;;;;;8.17;60.43;102257.69;5006596;28;6907;-70
2022/01/22 02:33:17;;;;;;;;;;;;;;;8.19;60.24;102256.16;5013106;28;7109;-70
2022/01/22 02:38:21;;;;;;;;;;;;;;;8.24;59.94;102254.00;5014034;28;7027;-70
2022/01/22 02:40:48;;;;;;;;;;;;;;;8.25;60.31;102247.25;5026161;28;7342;-70
2022/01/22 02:43:17;;;;;;;;;;;;;;;8.26;60.70;102247.41;5021077;28;6815;-70
2022/01/22 02:45:46;;;;;;;;;;;;;;;8.30;60.52;102253.66;5014014;28;6804;-70
2022/01/22 02:48:12;;;;;;;;;;;;;;;8.31;60.79;102242.69;4998411;28;6996;-70
2022/01/22 02:50:38;;;;;;;;;;;;;;;8.33;59.70;102243.72;5022485;28;7260;-70
2022/01/22 02:53:08;;;;;;;;;;;;;;;8.35;59.18;102247.31;5023148;28;7137;-70
2022/01/22 02:55:34;;;;;;;;;;;;;;;8.38;60.81;102251.78;5037208;28;9092;-70
2022/01/22 02:58:00;;;;;;;;;;;;;;;8.40;60.48;102256.28;5029650;28;6823;-70
2022/01/22 03:00:27;;;;;;;;;;;;;;;8.43;59.21;102260.72;5024626;28;6808;-70
2022/01/22 03:02:53;;;;;;;;;;;;;;;8.46;60.58;102255.91;5021745;28;6807;-70
2022/01/22 03:05:20;;;;;;;;;;;;;;;8.46;59.44;102259.34;5016294;28;7039;-70
2022/01/22 03:07:50;;;;;;;;;;;;;;;8.51;60.54;102253.78;5026263;28;6895;-70
2022/01/22 03:10:20;;;;;;;;;;;;;;;8.50;60.17;102247.72;5023847;28;8120;-70
2022/01/22 03:13:03;;;;;;;;;;;;;;;8.54;59.74;102243.81;5025751;28;7291;-70
2022/01/22 03:18:16;;;;;;;;;;;;;;;8.60;60.23;102245.22;5029038;28;7676;-70
2022/01/22 03:31:42;;;;;;;;;;;;;;;8.69;59.81;102245.13;5002191;28;6844;-70
2022/01/22 03:34:09;;;;;;;;;;;;;;;8.72;59.88;102244.47;5034334;28;6824;-70
2022/01/22 03:36:36;;;;;;;;;;;;;;;8.75;59.73;102247.31;5034008;28;7228;-70
2022/01/22 03:39:09;;;;;;;;;;;;;;;8.77;59.96;102242.31;5043063;28;6811;-70
2022/01/22 03:41:36;;;;;;;;;;;;;;;8.80;59.01;102240.03;5017334;28;7405;-70
2022/01/22 03:44:04;;;;;;;;;;;;;;;8.82;58.46;102243.63;5036831;28;7313;-70
2022/01/22 03:46:31;;;;;;;;;;;;;;;8.83;59.58;102243.72;5030611;28;6988;-70
2022/01/22 03:48:56;;;;;;;;;;;;;;;8.85;59.60;102251.53;5018513;28;6828;-70
2022/01/22 03:51:22;;;;;;;;;;;;;;;8.85;59.28;102254.09;5032472;28;7226;-70
2022/01/22 03:53:49;;;;;;;;;;;;;;;8.86;59.02;102251.66;5023517;28;7029;-70
2022/01/22 03:56:15;;;;;;;;;;;;;;;8.88;58.87;102256.91;5019638;28;7011;-70
2022/01/22 03:58:44;;;;;;;;;;;;;;;8.91;59.18;102257.19;5019552;28;7265;-70
2022/01/22 04:04:09;;;;;;;;;;;;;;;8.93;59.79;102253.06;5028675;28;6904;-70
2022/01/22 04:09:11;;;;;;;;;;;;;;;8.97;58.65;102261.91;5030676;28;7144;-70
2022/01/22 04:11:41;;;;;;;;;;;;;;;8.98;58.42;102254.38;4999308;28;8316;-70
2022/01/22 04:14:14;;;;;;;;;;;;;;;8.98;58.75;102254.38;5024539;28;7270;-70
2022/01/22 04:17:01;;;;;;;;;;;;;;;8.99;58.27;102250.13;5012093;28;6994;-70
2022/01/22 04:24:56;;;;;;;;;;;;;;;8.97;58.88;102239.78;5045656;28;6911;-70
2022/01/22 04:27:27;;;;;;;;;;;;;;;8.99;59.29;102247.59;5015002;28;6939;-70
2022/01/22 04:29:59;;;;;;;;;;;;;;;8.99;58.52;102240.81;5042848;28;7196;-70
2022/01/22 04:32:31;;;;;;;;;;;;;;;8.98;58.80;102241.59;5010377;28;6824;-70
2022/01/22 04:34:57;;;;;;;;;;;;;;;8.98;58.62;102254.38;5014780;28;6978;-70
2022/01/22 04:37:24;;;;;;;;;;;;;;;8.95;58.73;102261.78;5007356;28;7136;-70
2022/01/22 04:39:52;;;;;;;;;;;;;;;8.94;58.65;102256.53;5015589;28;7261;-70
2022/01/22 04:42:19;;;;;;;;;;;;;;;8.93;58.64;102255.63;5013542;28;7161;-70
2022/01/22 04:44:55;;;;;;;;;;;;;;;8.92;58.53;102269.19;5018221;28;7806;-70
2022/01/22 04:47:36;;;;;;;;;;;;;;;8.93;58.21;102258.19;5010715;28;7671;-70
2022/01/22 04:55:35;;;;;;;;;;;;;;;8.91;58.43;102258.81;5024824;28;6990;-70
2022/01/22 04:58:04;;;;;;;;;;;;;;;8.91;59.05;102252.06;5017334;28;6788;-70
2022/01/22 05:00:37;;;;;;;;;;;;;;;8.92;59.16;102253.84;5025549;28;7316;-70
2022/01/22 05:03:05;;;;;;;;;;;;;;;8.94;59.00;102256.53;5005657;28;6963;-70
2022/01/22 05:05:31;;;;;;;;;;;;;;;8.94;59.43;102256.53;5042358;28;6807;-70
2022/01/22 05:07:57;;;;;;;;;;;;;;;8.93;58.61;102253.06;5008986;28;6823;-70
2022/01/22 05:10:24;;;;;;;;;;;;;;;8.92;58.30;102256.41;5021294;28;7334;-70
2022/01/22 05:12:51;;;;;;;;;;;;;;;8.92;59.03;102255.50;5019830;28;6977;-71
2022/01/22 05:15:17;;;;;;;;;;;;;;;8.91;59.54;102262.28;5012443;28;6815;-70
2022/01/22 05:17:45;;;;;;;;;;;;;;;8.89;59.43;102254.47;5022393;28;7152;-70
2022/01/22 05:20:28;;;;;;;;;;;;;;;8.89;58.90;102248.47;5015316;28;7039;-70
2022/01/22 05:22:57;;;;;;;;;;;;;;;8.91;59.17;102266.50;5017653;28;6836;-70
2022/01/22 05:26:26;;;;;;;;;;;;;;;8.92;59.07;102253.84;5013836;28;7649;-70
2022/01/22 05:37:05;;;;;;;;;;;;;;;8.89;59.10;102251.03;5009883;28;10559;-70
2022/01/22 05:39:33;;;;;;;;;;;;;;;8.87;60.01;102250.00;5035019;28;7117;-70
2022/01/22 05:42:01;;;;;;;;;;;;;;;8.87;60.24;102256.00;5020362;28;7096;-70
2022/01/22 05:44:31;;;;;;;;;;;;;;;8.88;58.87;102254.34;5003189;28;7280;-70
2022/01/22 05:47:02;;;;;;;;;;;;;;;8.89;60.10;102251.03;5011741;28;6820;-70
2022/01/22 05:49:31;;;;;;;;;;;;;;;8.91;59.68;102256.25;5036817;28;7781;-70
2022/01/22 05:51:59;;;;;;;;;;;;;;;8.93;59.25;102255.63;5019422;28;7911;-70
2022/01/22 05:59:53;;;;;;;;;;;;;;;8.94;59.75;102270.22;5026017;28;7181;-70
2022/01/22 06:02:19;;;;;;;;;;;;;;;8.95;59.68;102276.25;5025776;28;7824;-70
2022/01/22 06:04:45;;;;;;;;;;;;;;;8.97;60.26;102272.13;4994962;28;7336;-70
2022/01/22 06:07:12;;;;;;;;;;;;;;;8.99;59.88;102274.06;5042486;28;6799;-70
2022/01/22 06:09:52;;;;;;;;;;;;;;;9.01;60.56;102275.09;5029201;28;8012;-70
2022/01/22 06:12:31;;;;;;;;;;;;;;;9.02;59.31;102276.88;5031250;28;6844;-70
2022/01/22 06:14:56;;;;;;;;;;;;;;;9.01;59.75;102267.41;5022341;28;6860;-70
2022/01/22 06:17:22;;;;;;;;;;;;;;;9.02;59.74;102276.88;5019222;28;6985;-70
2022/01/22 06:19:48;;;;;;;;;;;;;;;9.03;60.46;102283.78;5016894;28;6926;-70
2022/01/22 06:22:13;;;;;;;;;;;;;;;9.01;60.40;102275.09;5035488;28;6897;-70
2022/01/22 06:24:39;;;;;;;;;;;;;;;9.00;60.43;102282.63;5055364;28;6791;-70
2022/01/22 06:27:05;;;;;;;;;;;;;;;8.99;60.39;102284.31;5029189;28;7820;-70
2022/01/22 06:29:30;;;;;;;;;;;;;;;8.99;60.48;102286.84;5027180;28;6795;-70
2022/01/22 06:31:56;;;;;;;;;;;;;;;8.98;60.72;102279.97;5017602;28;6890;-70
2022/01/22 06:34:22;;;;;;;;;;;;;;;8.99;59.53;102283.38;5025651;28;6796;-70
2022/01/22 06:36:47;;;;;;;;;;;;;;;8.99;60.38;102283.38;5019737;28;6894;-70
2022/01/22 06:39:16;;;;;;;;;;;;;;;8.98;60.48;102274.84;5013394;28;6811;-70
2022/01/22 06:41:45;;;;;;;;;;;;;;;8.98;60.89;102277.41;5027038;28;7007;-70
2022/01/22 06:44:25;;;;;;;;;;;;;;;8.99;60.00;102275.72;5032246;28;6815;-70
2022/01/22 06:46:54;;;;;;;;;;;;;;;8.99;59.79;102285.94;5036361;28;6835;-70
2022/01/22 06:49:20;;;;;;;;;;;;;;;9.00;60.32;102290.28;5017221;28;6792;-70
2022/01/22 06:51:47;;;;;;;;;;;;;;;9.03;60.00;102293.13;5056354;28;7415;-70
2022/01/22 06:54:14;;;;;;;;;;;;;;;9.02;60.66;102292.22;5029922;28;7002;-70
2022/01/22 06:56:40;;;;;;;;;;;;;;;9.04;60.41;102292.38;5037702;28;6998;-70
2022/01/22 06:59:09;;;;;;;;;;;;;;;9.06;60.12;102297.59;5017596;28;8766;-70
2022/01/22 07:01:34;;;;;;;;;;;;;;;9.06;60.86;102297.59;5009496;28;7136;-70
2022/01/22 07:04:01;;;;;;;;;;;;;;;9.08;60.57;102308.84;5014159;28;6780;-70
2022/01/22 07:06:27;;;;;;;;;;;;;;;9.07;60.76;102300.28;5021980;28;6864;-71
2022/01/22 07:08:53;;;;;;;;;;;;;;;9.09;60.08;102310.66;5030974;28;6888;-70
2022/01/22 07:11:19;;;;;;;;;;;;;;;9.08;60.56;102313.94;5001949;28;6888;-70
2022/01/22 07:13:46;;;;;;;;;;;;;;;9.10;60.64;102320.13;5019145;28;7295;-70
2022/01/22 07:16:12;;;;;;;;;;;;;;;9.11;60.81;102319.34;5021196;28;7106;-70
2022/01/22 07:18:38;;;;;;;;;;;;;;;9.13;60.64;102323.84;5015589;28;6998;-70
2022/01/22 07:21:23;;;;;;;;;;;;;;;9.15;59.81;102318.84;5022320;28;6999;-70
2022/01/22 07:26:16;;;;;;;;;;;;;;;9.13;60.40;102331.50;5026082;28;6972;-70
2022/01/22 07:28:42;;;;;;;;;;;;;;;9.15;60.27;102334.19;5007754;28;6796;-70
2022/01/22 07:31:09;;;;;;;;;;;;;;;9.11;60.75;102327.91;5027225;28;6819;-70
2022/01/22 07:33:36;;;;;;;;;;;;;;;9.10;60.12;102343.16;5044258;28;6816;-70
2022/01/22 07:36:04;;;;;;;;;;;;;;;9.08;61.32;102347.22;5025845;28;6860;-70
2022/01/22 07:38:29;;;;;;;;;;;;;;;9.06;60.32;102349.66;5041746;28;7018;-70
2022/01/22 07:40:55;;;;;;;;;;;;;;;9.06;60.45;102346.19;5038416;28;7180;-70
2022/01/22 07:43:21;;;;;;;;;;;;;;;9.06;60.75;102353.84;5008104;28;6870;-70
2022/01/22 07:45:46;;;;;;;;;;;;;;;9.05;61.30;102349.50;5022069;28;7183;-70
2022/01/22 07:48:12;;;;;;;;;;;;;;;9.03;60.30;102347.72;5030342;28;6963;-70
2022/01/22 07:50:39;;;;;;;;;;;;;;;9.01;60.30;102345.78;5015360;28;6787;-70
2022/01/22 07:53:04;;;;;;;;;;;;;;;8.99;60.81;102347.31;4989035;28;6804;-70
2022/01/22 07:55:31;;;;;;;;;;;;;;;8.97;60.87;102351.44;5026871;28;6889;-70
2022/01/22 07:57:57;;;;;;;;;;;;;;;8.98;60.77;102356.69;4990648;28;6992;-70
2022/01/22 08:00:23;;;;;;;;;;;;;;;9.02;60.82;102357.81;4987588;28;7181;-70
2022/01/22 08:02:49;;;;;;;;;;;;;;;9.03;61.35;102351.97;5009454;28;7892;-70
2022/01/22 08:05:15;;;;;;;;;;;;;;;9.08;60.97;102352.31;5023074;28;6796;-70
2022/01/22 08:07:45;;;;;;;;;;;;;;;9.11;61.09;102362.84;4986796;28;6807;-70
2022/01/22 08:10:12;;;;;;;;;;;;;;;9.14;61.38;102360.53;4990781;28;7098;-70
2022/01/22 08:12:42;;;;;;;;;;;;;;;9.16;60.53;102351.31;4990923;28;6974;-70
2022/01/22 08:15:12;;;;;;;;;;;;;;;9.16;60.88;102356.44;4994750;28;7078;-70
2022/01/22 08:17:38;;;;;;;;;;;;;;;9.13;60.46;102357.09;5023403;28;6816;-70
2022/01/22 08:20:05;;;;;;;;;;;;;;;9.13;61.33;102361.31;4996011;28;7009;-70
2022/01/22 08:22:30;;;;;;;;;;;;;;;9.14;61.29;102357.97;4992579;28;6875;-70
2022/01/22 08:24:59;;;;;;;;;;;;;;;9.14;61.82;102355.41;4985217;28;6867;-70
2022/01/22 08:29:55;;;;;;;;;;;;;;;9.16;61.37;102354.78;5016614;28;7236;-70
2022/01/22 08:37:35;;;;;;;;;;;;;;;9.20;61.42;102363.63;5000397;28;7398;-70
2022/01/22 08:40:06;;;;;;;;;;;;;;;9.21;61.44;102365.41;5009457;28;7385;-70
2022/01/22 08:42:32;;;;;;;;;;;;;;;9.20;61.53;102368.75;4990747;28;6836;-70
2022/01/22 08:44:58;;;;;;;;;;;;;;;9.19;61.95;102363.47;5014885;28;7199;-70
2022/01/22 08:47:23;;;;;;;;;;;;;;;9.19;61.81;102355.81;5014636;28;6791;-70
2022/01/22 08:49:49;;;;;;;;;;;;;;;9.17;61.31;102353.09;5001135;28;7414;-70
2022/01/22 08:52:16;;;;;;;;;;;;;;;9.18;61.23;102354.94;4994578;28;6811;-70
2022/01/22 08:54:43;;;;;;;;;;;;;;;9.16;61.49;102359.91;5025576;28;7290;-70
2022/01/22 08:57:10;;;;;;;;;;;;;;;9.18;61.29;102367.72;4994795;28;6943;-70
2022/01/22 08:59:36;;;;;;;;;;;;;;;9.21;62.04;102373.09;4974922;28;7265;-70
2022/01/22 09:02:04;;;;;;;;;;;;;;;9.22;60.95;102374.88;4990776;28;6943;-70
2022/01/22 09:04:31;;;;;;;;;;;;;;;9.21;61.53;102373.09;4992271;28;7015;-70
2022/01/22 09:06:58;;;;;;;;;;;;;;;9.23;62.06;102378.34;5010015;28;8443;-70
2022/01/22 09:09:26;;;;;;;;;;;;;;;9.23;61.17;102371.56;4990905;28;7334;-70
2022/01/22 09:11:52;;;;;;;;;;;;;;;9.24;62.03;102375.03;4997637;28;6884;-70
2022/01/22 09:14:18;;;;;;;;;;;;;;;9.26;61.04;102373.47;4996181;28;7099;-70
2022/01/22 09:16:47;;;;;;;;;;;;;;;9.27;62.22;102378.75;4997320;28;6832;-70
2022/01/22 09:19:14;;;;;;;;;;;;;;;9.30;61.24;102385.75;4996921;28;7385;-70
2022/01/22 09:21:46;;;;;;;;;;;;;;;9.30;61.56;102379.00;5012851;28;6800;-71
2022/01/22 09:24:17;;;;;;;;;;;;;;;9.30;61.18;102380.63;4973520;28;8582;-70
2022/01/22 09:26:44;;;;;;;;;;;;;;;9.31;61.45;102383.34;4997947;28;7787;-70
2022/01/22 09:29:10;;;;;;;;;;;;;;;9.34;61.84;102389.47;5000697;28;7245;-70
2022/01/22 09:31:36;;;;;;;;;;;;;;;9.37;61.64;102387.19;5016167;28;7849;-70
2022/01/22 09:34:03;;;;;;;;;;;;;;;9.41;61.58;102382.44;4987098;28;6970;-70
2022/01/22 09:36:31;;;;;;;;;;;;;;;9.45;62.53;102386.16;4998540;28;7153;-70
2022/01/22 09:38:57;;;;;;;;;;;;;;;9.53;62.63;102387.69;4992393;28;7350;-70
2022/01/22 09:41:26;;;;;;;;;;;;;;;9.62;61.73;102394.38;4992814;28;7129;-70
2022/01/22 09:43:53;;;;;;;;;;;;;;;9.72;62.40;102391.81;5012754;28;7027;-70
2022/01/22 09:46:21;;;;;;;;;;;;;;;9.78;62.36;102387.22;4994329;28;6871;-70
2022/01/22 09:48:49;;;;;;;;;;;;;;;9.84;62.30;102385.13;5010707;28;7034;-70
2022/01/22 09:51:15;;;;;;;;;;;;;;;9.88;61.35;102391.41;5005712;28;7073;-70
2022/01/22 09:53:45;;;;;;;;;;;;;;;9.91;62.04;102393.34;5002063;28;8096;-70
2022/01/22 09:56:12;;;;;;;;;;;;;;;9.94;61.87;102385.91;4987567;28;7198;-70
2022/01/22 09:58:38;;;;;;;;;;;;;;;9.98;61.87;102387.97;4992989;28;6824;-71
2022/01/22 10:01:34;;;;;;;;;;;;;;;10.02;61.50;102390.00;4976014;28;7233;-70
2022/01/22 10:04:05;;;;;;;;;;;;;;;10.09;61.49;102386.25;4981568;28;7163;-71
2022/01/22 10:06:45;;;;;;;;;;;;;;;10.13;61.69;102384.06;4975184;28;6808;-70
2022/01/22 10:09:24;;;;;;;;;;;;;;;10.17;61.28;102386.91;4988342;28;7153;-70
2022/01/22 10:12:10;;;;;;;;;;;;;;;10.20;60.92;102397.41;5024390;28;7482;-70
2022/01/22 10:15:05;;;;;;;;;;;;;;;10.19;61.40;102403.28;5050704;28;6835;-70
2022/01/22 10:17:46;;;;;;;;;;;;;;;10.21;61.53;102394.06;5036541;28;7076;-70
2022/01/22 10:20:21;;;;;;;;;;;;;;;10.20;61.17;102400.88;5023266;28;7220;-70
2022/01/22 10:22:49;;;;;;;;;;;;;;;10.21;61.51;102406.88;5034600;28;7204;-70
2022/01/22 10:25:36;;;;;;;;;;;;;;;10.20;61.14;102397.41;5022894;28;6812;-70
2022/01/22 10:28:10;;;;;;;;;;;;;;;10.20;61.23;102397.41;5002249;28;7003;-70
2022/01/22 10:30:41;;;;;;;;;;;;;;;10.19;61.57;102395.59;5021172;28;6820;-70
2022/01/22 10:33:33;;;;;;;;;;;;;;;10.17;61.00;102397.16;5038355;28;6828;-70
2022/01/22 10:36:21;;;;;;;;;;;;;;;10.16;61.16;102395.38;5030656;28;6832;-70
2022/01/22 10:38:53;;;;;;;;;;;;;;;10.14;61.35;102393.56;5020872;28;6828;-70
2022/01/22 10:41:42;;;;;;;;;;;;;;;10.22;61.53;102390.72;5037790;28;6811;-70
2022/01/22 10:44:22;;;;;;;;;;;;;;;10.27;61.91;102379.19;5032876;28;7241;-70
2022/01/22 10:47:02;;;;;;;;;;;;;;;10.32;61.59;102383.00;5001892;28;6827;-70
2022/01/22 10:49:28;;;;;;;;;;;;;;;10.35;61.63;102378.16;5035456;28;7417;-70
2022/01/22 10:52:10;;;;;;;;;;;;;;;10.38;60.92;102380.94;4989190;28;7043;-70
2022/01/22 10:54:38;;;;;;;;;;;;;;;10.41;61.55;102383.78;5031666;28;6823;-70
2022/01/22 10:57:19;;;;;;;;;;;;;;;10.46;61.61;102390.97;5032213;28;7262;-70
2022/01/22 10:59:56;;;;;;;;;;;;;;;10.49;61.39;102388.63;4998236;28;6998;-70
2022/01/22 11:02:38;;;;;;;;;;;;;;;10.54;61.28;102388.22;5012013;28;6796;-70
2022/01/22 11:05:06;;;;;;;;;;;;;;;10.57;61.57;102402.97;5030321;28;6828;-70
2022/01/22 11:07:32;;;;;;;;;;;;;;;10.59;61.10;102398.84;5028241;28;6796;-70
2022/01/22 11:09:57;;;;;;;;;;;;;;;10.60;61.52;102385.25;5018153;28;6952;-70
2022/01/22 11:12:23;;;;;;;;;;;;;;;10.64;61.40;102386.41;5027509;28;6776;-70
2022/01/22 11:14:49;;;;;;;;;;;;;;;10.68;61.44;102385.88;5039474;28;7251;-70
2022/01/22 11:17:15;;;;;;;;;;;;;;;10.74;61.00;102382.91;5021747;28;6831;-70
2022/01/22 11:19:45;;;;;;;;;;;;;;;10.80;61.04;102383.38;5024726;28;7295;-70
2022/01/22 11:22:14;;;;;;;;;;;;;;;10.85;61.39;102379.50;5032927;28;6819;-70
2022/01/22 11:24:44;;;;;;;;;;;;;;;10.90;61.23;102380.75;5037815;28;7086;-70
2022/01/22 11:27:15;;;;;;;;;;;;;;;10.95;60.82;102382.03;5029625;28;6812;-70
2022/01/22 11:30:06;;;;;;;;;;;;;;;10.98;61.15;102373.69;5032142;28;6812;-70
2022/01/22 11:33:06;;;;;;;;;;;;;;;11.02;60.72;102377.38;5029422;28;7417;-70
2022/01/22 11:36:02;;;;;;;;;;;;;;;11.04;60.51;102383.53;5038409;28;6828;-70
2022/01/22 11:38:37;;;;;;;;;;;;;;;11.04;60.68;102380.97;5029811;28;6893;-70
2022/01/22 11:41:19;;;;;;;;;;;;;;;11.06;60.49;102390.56;5007188;28;7093;-70
2022/01/22 11:44:09;;;;;;;;;;;;;;;11.07;60.39;102392.34;5025724;28;6831;-70
2022/01/22 11:46:41;;;;;;;;;;;;;;;11.06;60.48;102387.09;5041681;28;6835;-70
2022/01/22 11:49:26;;;;;;;;;;;;;;;11.06;60.24;102379.41;5039223;28;6816;-70
2022/01/22 11:52:07;;;;;;;;;;;;;;;11.07;60.41;102378.63;5044205;28;7106;-70
2022/01/22 11:54:49;;;;;;;;;;;;;;;11.06;60.64;102377.75;5021495;28;6891;-70
2022/01/22 11:57:16;;;;;;;;;;;;;;;11.08;60.39;102380.41;5040780;28;7133;-70
2022/01/22 11:59:43;;;;;;;;;;;;;;;11.10;60.32;102366.94;5026114;28;6804;-70
2022/01/22 12:02:14;;;;;;;;;;;;;;;11.14;60.43;102375.75;5021593;28;6828;-70
2022/01/22 12:04:40;;;;;;;;;;;;;;;11.18;60.36;102370.06;5018383;28;6836;-70
2022/01/22 12:07:07;;;;;;;;;;;;;;;11.23;60.54;102376.47;5041121;28;7311;-70
2022/01/22 12:16:40;;;;;;;;;;;;;;;11.31;59.91;102371.03;5027721;28;6828;-70
2022/01/22 12:19:48;;;;;;;;;;;;;;;11.33;60.09;102362.66;5024658;28;7207;-70
2022/01/22 12:22:35;;;;;;;;;;;;;;;11.35;59.83;102366.25;5023744;28;7074;-70
2022/01/22 12:25:23;;;;;;;;;;;;;;;11.41;60.28;102376.09;5040181;28;6867;-70
2022/01/22 12:27:52;;;;;;;;;;;;;;;11.46;59.83;102364.47;5021870;28;7578;-70
2022/01/22 12:30:34;;;;;;;;;;;;;;;11.49;59.37;102354.47;5014875;28;7252;-69
2022/01/22 12:33:01;;;;;;;;;;;;;;;11.51;60.01;102345.19;5031534;28;6980;-70
2022/01/22 12:35:37;;;;;;;;;;;;;;;11.52;59.78;102344.41;5018886;28;7279;-70
2022/01/22 12:43:51;;;;;;;;;;;;;;;11.49;59.31;102333.94;5028777;28;7238;-70
2022/01/22 12:46:17;;;;;;;;;;;;;;;11.52;59.52;102344.41;5018511;28;6796;-70
2022/01/22 12:48:48;;;;;;;;;;;;;;;11.54;59.14;102347.13;5016992;28;6788;-70
2022/01/22 12:51:14;;;;;;;;;;;;;;;11.55;59.14;102345.41;4995149;28;7363;-70
2022/01/22 12:53:48;;;;;;;;;;;;;;;11.56;59.37;102347.19;5006365;28;6954;-70
2022/01/22 12:59:09;;;;;;;;;;;;;;;11.53;59.01;102351.34;5035654;28;6996;-70
2022/01/22 13:01:42;;;;;;;;;;;;;;;11.50;59.06;102348.56;5060630;28;7277;-70
2022/01/22 13:04:09;;;;;;;;;;;;;;;11.46;58.92;102343.94;5026550;28;6820;-70
2022/01/22 13:06:50;;;;;;;;;;;;;;;11.43;59.03;102347.94;5037691;28;7121;-70
2022/01/22 13:09:16;;;;;;;;;;;;;;;11.38;59.02;102355.31;5064367;28;6815;-70
2022/01/22 13:11:49;;;;;;;;;;;;;;;11.35;59.05;102355.06;5014392;28;7882;-70
2022/01/22 13:14:27;;;;;;;;;;;;;;;11.32;59.16;102352.28;5023194;28;6898;-70
2022/01/22 13:16:56;;;;;;;;;;;;;;;11.32;59.27;102360.00;5043232;28;7358;-70
2022/01/22 13:19:24;;;;;;;;;;;;;;;11.30;59.09;102362.44;5026212;28;6804;-70
2022/01/22 13:21:57;;;;;;;;;;;;;;;11.29;59.34;102367.44;5044184;28;7212;-70
2022/01/22 13:24:27;;;;;;;;;;;;;;;11.27;59.38;102366.44;5029645;28;6820;-70
2022/01/22 13:27:03;;;;;;;;;;;;;;;11.27;59.40;102362.19;5034728;28;6831;-70
2022/01/22 13:29:29;;;;;;;;;;;;;;;11.28;59.22;102363.09;5025074;28;6819;-70
2022/01/22 13:32:20;;;;;;;;;;;;;;;11.28;59.23;102368.22;5033417;28;6985;-70
2022/01/22 13:37:58;;;;;;;;;;;;;;;11.26;59.10;102368.13;5029784;28;6815;-70
2022/01/22 13:48:36;;;;;;;;;;;;;;;11.24;58.85;102362.84;5022571;28;6920;-70
2022/01/22 13:51:04;;;;;;;;;;;;;;;11.20;59.01;102358.28;5025823;28;7880;-70
2022/01/22 13:53:36;;;;;;;;;;;;;;;11.20;59.01;102359.94;5024524;28;6796;-70
2022/01/22 13:56:08;;;;;;;;;;;;;;;11.19;58.79;102359.03;5005794;28;7114;-70
2022/01/22 13:58:35;;;;;;;;;;;;;;;11.17;58.72;102363.16;5005437;28;7007;-70
2022/01/22 14:01:16;;;;;;;;;;;;;;;11.15;58.77;102363.81;5022822;28;7257;-70
2022/01/22 14:03:45;;;;;;;;;;;;;;;11.13;58.83;102362.78;5025819;28;6816;-69
2022/01/22 14:06:12;;;;;;;;;;;;;;;11.13;58.90;102365.38;5042529;28;7687;-70
2022/01/22 14:08:38;;;;;;;;;;;;;;;11.11;58.76;102358.44;5019684;28;6804;-70
2022/01/22 14:11:10;;;;;;;;;;;;;;;11.09;58.42;102364.22;5030456;28;6910;-70
2022/01/22 14:13:38;;;;;;;;;;;;;;;11.08;58.93;102365.00;5033251;28;6812;-70
2022/01/22 14:16:22;;;;;;;;;;;;;;;11.05;58.56;102365.66;5006661;28;7101;-70
2022/01/22 14:18:47;;;;;;;;;;;;;;;11.05;58.70;102369.91;5023844;28;6819;-70
2022/01/22 14:21:21;;;;;;;;;;;;;;;11.03;58.86;102367.22;5038208;28;7078;-70
2022/01/22 14:23:52;;;;;;;;;;;;;;;11.03;58.55;102372.34;5014290;28;7941;-70
2022/01/22 14:26:34;;;;;;;;;;;;;;;11.02;58.75;102367.13;5014296;28;6986;-70
2022/01/22 14:29:07;;;;;;;;;;;;;;;11.01;58.55;102363.66;5017477;28;7250;-70
2022/01/22 14:31:47;;;;;;;;;;;;;;;10.99;58.98;102365.19;4999522;28;7033;-70
2022/01/22 14:34:35;;;;;;;;;;;;;;;10.97;59.10;102364.19;5053349;28;8132;-70
2022/01/22 14:37:04;;;;;;;;;;;;;;;10.94;58.85;102362.28;5034846;28;7043;-70
2022/01/22 14:45:57;;;;;;;;;;;;;;;10.89;59.00;102373.84;5017664;28;6852;-70
2022/01/22 14:48:23;;;;;;;;;;;;;;;10.89;58.86;102373.84;5046643;28;7029;-70
2022/01/22 14:50:49;;;;;;;;;;;;;;;10.91;59.04;102371.41;5014800;28;6983;-70
2022/01/22 14:53:15;;;;;;;;;;;;;;;10.90;58.96;102377.31;5029998;28;6784;-70
2022/01/22 14:55:50;;;;;;;;;;;;;;;10.87;59.37;102380.53;5020976;28;6783;-70
2022/01/22 14:58:15;;;;;;;;;;;;;;;10.83;58.59;102375.94;5045926;28;6982;-70
2022/01/22 15:00:41;;;;;;;;;;;;;;;10.82;58.97;102374.16;5042931;28;6784;-70
2022/01/22 15:03:06;;;;;;;;;;;;;;;10.79;58.82;102376.47;5023984;28;6863;-70
2022/01/22 15:05:33;;;;;;;;;;;;;;;10.79;58.84;102376.47;5026498;28;6945;-70
2022/01/22 15:07:59;;;;;;;;;;;;;;;10.77;58.72;102376.34;5032404;28;6888;-70
2022/01/22 15:10:26;;;;;;;;;;;;;;;10.76;58.42;102378.78;5013013;28;6804;-70